sensor_id;sensor_type;location;lat;lon;timestamp;pressure;altitude;pressure_sealevel;temperature;humidity
63281;BME280;49406;51.044;3.766;2023-09-19T00:00:08;101023.95;;;14.84;100.00
63281;BME280;49406;51.044;3.766;2023-09-19T00:02:43;101028.89;;;14.83;100.00
63281;BME280;49406;51.044;3.766;2023-09-19T00:05:20;101031.73;;;14.76;100.00
63281;BME280;49406;51.044;3.766;2023-09-19T00:07:58;101032.10;;;14.72;100.00
63281;BME280;49406;51.044;3.766;2023-09-19T00:10:33;101034.41;;;14.70;100.00
63281;BME280;49406;51.044;3.766;2023-09-19T00:13:08;101032.96;;;14.77;100.00
63281;BME280;49406;51.044;3.766;2023-09-19T00:15:48;101032.61;;;14.78;100.00
63281;BME280;49406;51.044;3.766;2023-09-19T00:18:23;101034.40;;;14.72;100.00
63281;BME280;49406;51.044;3.766;2023-09-19T00:21:01;101034.77;;;14.70;100.00
63281;BME280;49406;51.044;3.766;2023-09-19T00:23:38;101037.77;;;14.67;100.00
63281;BME280;49406;51.044;3.766;2023-09-19T00:26:14;101039.67;;;14.73;100.00
63281;BME280;49406;51.044;3.766;2023-09-19T00:28:48;101035.95;;;14.75;100.00
63281;BME280;49406;51.044;3.766;2023-09-19T00:31:23;101034.42;;;14.68;100.00
63281;BME280;49406;51.044;3.766;2023-09-19T00:33:58;101037.98;;;14.65;100.00
63281;BME280;49406;51.044;3.766;2023-09-19T00:36:37;101036.23;;;14.59;100.00
63281;BME280;49406;51.044;3.766;2023-09-19T00:39:12;101039.42;;;14.54;100.00
63281;BME280;49406;51.044;3.766;2023-09-19T00:41:47;101045.75;;;14.56;100.00
63281;BME280;49406;51.044;3.766;2023-09-19T00:44:22;101049.80;;;14.54;100.00
63281;BME280;49406;51.044;3.766;2023-09-19T00:46:57;101052.29;;;14.50;100.00
63281;BME280;49406;51.044;3.766;2023-09-19T00:49:33;101054.25;;;14.46;100.00
63281;BME280;49406;51.044;3.766;2023-09-19T00:52:08;101049.13;;;14.43;100.00
63281;BME280;49406;51.044;3.766;2023-09-19T00:54:43;101050.18;;;14.41;100.00
63281;BME280;49406;51.044;3.766;2023-09-19T00:57:18;101046.33;;;14.47;100.00
63281;BME280;49406;51.044;3.766;2023-09-19T00:59:56;101049.50;;;14.47;100.00
63281;BME280;49406;51.044;3.766;2023-09-19T01:02:31;101050.01;;;14.39;100.00
63281;BME280;49406;51.044;3.766;2023-09-19T01:05:06;101053.89;;;14.36;100.00
63281;BME280;49406;51.044;3.766;2023-09-19T01:07:41;101051.98;;;14.33;100.00
63281;BME280;49406;51.044;3.766;2023-09-19T01:10:18;101052.30;;;14.38;100.00
63281;BME280;49406;51.044;3.766;2023-09-19T01:13:00;101055.09;;;14.42;100.00
63281;BME280;49406;51.044;3.766;2023-09-19T01:15:48;101055.30;;;14.37;100.00
63281;BME280;49406;51.044;3.766;2023-09-19T01:18:35;101057.44;;;14.32;100.00
63281;BME280;49406;51.044;3.766;2023-09-19T01:21:15;101060.95;;;14.32;100.00
63281;BME280;49406;51.044;3.766;2023-09-19T01:27:24;101064.26;;;14.39;100.00
63281;BME280;49406;51.044;3.766;2023-09-19T01:30:10;101065.67;;;14.38;100.00
63281;BME280;49406;51.044;3.766;2023-09-19T01:32:45;101071.67;;;14.35;100.00
63281;BME280;49406;51.044;3.766;2023-09-19T01:35:20;101072.20;;;14.35;100.00
63281;BME280;49406;51.044;3.766;2023-09-19T01:37:55;101070.59;;;14.38;100.00
63281;BME280;49406;51.044;3.766;2023-09-19T01:40:29;101069.55;;;14.48;100.00
63281;BME280;49406;51.044;3.766;2023-09-19T01:43:12;101069.71;;;14.49;100.00
63281;BME280;49406;51.044;3.766;2023-09-19T01:45:56;101068.15;;;14.46;100.00
63281;BME280;49406;51.044;3.766;2023-09-19T01:48:38;101063.74;;;14.45;100.00
63281;BME280;49406;51.044;3.766;2023-09-19T01:51:25;101066.52;;;14.53;100.00
63281;BME280;49406;51.044;3.766;2023-09-19T01:54:11;101065.78;;;14.64;100.00
63281;BME280;49406;51.044;3.766;2023-09-19T01:56:53;101067.54;;;14.64;100.00
63281;BME280;49406;51.044;3.766;2023-09-19T01:59:37;101065.43;;;14.61;100.00
63281;BME280;49406;51.044;3.766;2023-09-19T02:02:16;101064.19;;;14.60;100.00
63281;BME280;49406;51.044;3.766;2023-09-19T02:04:52;101060.15;;;14.61;100.00
63281;BME280;49406;51.044;3.766;2023-09-19T02:07:30;101058.01;;;14.68;100.00
63281;BME280;49406;51.044;3.766;2023-09-19T02:10:07;101057.65;;;14.69;100.00
63281;BME280;49406;51.044;3.766;2023-09-19T02:12:43;101061.18;;;14.67;100.00
63281;BME280;49406;51.044;3.766;2023-09-19T02:15:18;101057.13;;;14.67;100.00
63281;BME280;49406;51.044;3.766;2023-09-19T02:17:53;101060.96;;;14.73;100.00
63281;BME280;49406;51.044;3.766;2023-09-19T02:20:30;101056.70;;;14.83;100.00
63281;BME280;49406;51.044;3.766;2023-09-19T02:23:06;101059.16;;;14.84;100.00
63281;BME280;49406;51.044;3.766;2023-09-19T02:25:41;101054.41;;;14.82;100.00
63281;BME280;49406;51.044;3.766;2023-09-19T02:28:16;101051.08;;;14.79;100.00
63281;BME280;49406;51.044;3.766;2023-09-19T02:30:51;101056.37;;;14.80;100.00
63281;BME280;49406;51.044;3.766;2023-09-19T02:33:25;101062.80;;;14.90;100.00
63281;BME280;49406;51.044;3.766;2023-09-19T02:36:00;101065.95;;;14.97;100.00
63281;BME280;49406;51.044;3.766;2023-09-19T02:38:37;101068.23;;;14.98;100.00
63281;BME280;49406;51.044;3.766;2023-09-19T02:41:11;101069.26;;;15.00;100.00
63281;BME280;49406;51.044;3.766;2023-09-19T02:43:46;101073.83;;;15.02;100.00
63281;BME280;49406;51.044;3.766;2023-09-19T02:46:21;101079.02;;;15.16;100.00
63281;BME280;49406;51.044;3.766;2023-09-19T02:48:56;101082.33;;;15.19;100.00
63281;BME280;49406;51.044;3.766;2023-09-19T02:51:30;101083.21;;;15.20;100.00
63281;BME280;49406;51.044;3.766;2023-09-19T02:54:07;101084.63;;;15.20;100.00
63281;BME280;49406;51.044;3.766;2023-09-19T02:56:42;101088.59;;;15.31;100.00
63281;BME280;49406;51.044;3.766;2023-09-19T02:59:16;101094.02;;;15.35;100.00
63281;BME280;49406;51.044;3.766;2023-09-19T03:01:52;101097.38;;;15.35;100.00
63281;BME280;49406;51.044;3.766;2023-09-19T03:04:27;101088.95;;;15.32;100.00
63281;BME280;49406;51.044;3.766;2023-09-19T03:07:05;101086.29;;;15.34;100.00
63281;BME280;49406;51.044;3.766;2023-09-19T03:09:40;101081.52;;;15.35;100.00
63281;BME280;49406;51.044;3.766;2023-09-19T03:12:15;101083.66;;;15.33;100.00
63281;BME280;49406;51.044;3.766;2023-09-19T03:14:50;101081.95;;;15.25;100.00
63281;BME280;49406;51.044;3.766;2023-09-19T03:17:25;101082.84;;;15.22;100.00
63281;BME280;49406;51.044;3.766;2023-09-19T03:20:00;101083.02;;;15.23;100.00
63281;BME280;49406;51.044;3.766;2023-09-19T03:22:35;101087.42;;;15.22;100.00
63281;BME280;49406;51.044;3.766;2023-09-19T03:25:09;101085.88;;;15.18;100.00
63281;BME280;49406;51.044;3.766;2023-09-19T03:27:44;101083.64;;;15.07;100.00
63281;BME280;49406;51.044;3.766;2023-09-19T03:30:19;101084.88;;;15.06;100.00
63281;BME280;49406;51.044;3.766;2023-09-19T03:32:54;101081.02;;;15.05;100.00
63281;BME280;49406;51.044;3.766;2023-09-19T03:35:29;101078.02;;;15.05;100.00
63281;BME280;49406;51.044;3.766;2023-09-19T03:38:03;101078.59;;;15.02;100.00
63281;BME280;49406;51.044;3.766;2023-09-19T03:40:38;101078.10;;;14.94;100.00
63281;BME280;49406;51.044;3.766;2023-09-19T03:43:13;101087.48;;;14.86;100.00
63281;BME280;49406;51.044;3.766;2023-09-19T03:45:47;101088.22;;;14.78;100.00
63281;BME280;49406;51.044;3.766;2023-09-19T03:48:24;101086.99;;;14.79;100.00
63281;BME280;49406;51.044;3.766;2023-09-19T03:50:58;101089.98;;;14.76;100.00
63281;BME280;49406;51.044;3.766;2023-09-19T03:53:33;101091.92;;;14.73;100.00
63281;BME280;49406;51.044;3.766;2023-09-19T03:56:08;101088.61;;;14.71;100.00
63281;BME280;49406;51.044;3.766;2023-09-19T03:58:43;101080.90;;;14.64;100.00
63281;BME280;49406;51.044;3.766;2023-09-19T04:01:18;101077.73;;;14.66;100.00
63281;BME280;49406;51.044;3.766;2023-09-19T04:03:52;101072.27;;;14.66;100.00
63281;BME280;49406;51.044;3.766;2023-09-19T04:06:27;101075.98;;;14.64;100.00
63281;BME280;49406;51.044;3.766;2023-09-19T04:09:02;101076.00;;;14.57;100.00
63281;BME280;49406;51.044;3.766;2023-09-19T04:11:40;101070.24;;;14.49;100.00
63281;BME280;49406;51.044;3.766;2023-09-19T04:14:14;101071.81;;;14.51;100.00
63281;BME280;49406;51.044;3.766;2023-09-19T04:16:49;101068.66;;;14.50;100.00
63281;BME280;49406;51.044;3.766;2023-09-19T04:19:23;101070.95;;;14.45;100.00
63281;BME280;49406;51.044;3.766;2023-09-19T04:21:58;101073.40;;;14.39;100.00
63281;BME280;49406;51.044;3.766;2023-09-19T04:24:33;101083.98;;;14.33;100.00
63281;BME280;49406;51.044;3.766;2023-09-19T04:27:07;101081.19;;;14.31;100.00
63281;BME280;49406;51.044;3.766;2023-09-19T04:29:43;101082.75;;;14.34;100.00
63281;BME280;49406;51.044;3.766;2023-09-19T04:32:18;101085.92;;;14.33;100.00
63281;BME280;49406;51.044;3.766;2023-09-19T04:34:52;101098.77;;;14.32;100.00
63281;BME280;49406;51.044;3.766;2023-09-19T04:37:27;101109.33;;;14.29;100.00
63281;BME280;49406;51.044;3.766;2023-09-19T04:40:01;101119.52;;;14.25;100.00
63281;BME280;49406;51.044;3.766;2023-09-19T04:42:39;101122.87;;;14.22;100.00
63281;BME280;49406;51.044;3.766;2023-09-19T04:45:15;101126.03;;;14.28;100.00
63281;BME280;49406;51.044;3.766;2023-09-19T04:47:49;101124.80;;;14.29;100.00
63281;BME280;49406;51.044;3.766;2023-09-19T04:50:24;101128.67;;;14.30;100.00
63281;BME280;49406;51.044;3.766;2023-09-19T04:53:00;101126.91;;;14.31;100.00
63281;BME280;49406;51.044;3.766;2023-09-19T04:55:34;101129.90;;;14.29;100.00
63281;BME280;49406;51.044;3.766;2023-09-19T04:58:09;101128.66;;;14.24;100.00
63281;BME280;49406;51.044;3.766;2023-09-19T05:00:44;101123.05;;;14.25;100.00
63281;BME280;49406;51.044;3.766;2023-09-19T05:03:19;101123.92;;;14.32;100.00
63281;BME280;49406;51.044;3.766;2023-09-19T05:05:55;101117.05;;;14.33;100.00
63281;BME280;49406;51.044;3.766;2023-09-19T05:08:30;101114.94;;;14.33;100.00
63281;BME280;49406;51.044;3.766;2023-09-19T05:11:03;101111.06;;;14.34;100.00
63281;BME280;49406;51.044;3.766;2023-09-19T05:13:37;101107.02;;;14.34;100.00
63281;BME280;49406;51.044;3.766;2023-09-19T05:16:12;101109.83;;;14.35;100.00
63281;BME280;49406;51.044;3.766;2023-09-19T05:18:46;101105.26;;;14.35;100.00
63281;BME280;49406;51.044;3.766;2023-09-19T05:21:23;101104.03;;;14.35;100.00
63281;BME280;49406;51.044;3.766;2023-09-19T05:23:57;101110.19;;;14.35;100.00
63281;BME280;49406;51.044;3.766;2023-09-19T05:26:32;101109.51;;;14.31;100.00
63281;BME280;49406;51.044;3.766;2023-09-19T05:29:06;101114.95;;;14.27;100.00
63281;BME280;49406;51.044;3.766;2023-09-19T05:31:41;101118.30;;;14.29;100.00
63281;BME280;49406;51.044;3.766;2023-09-19T05:34:16;101121.45;;;14.33;100.00
63281;BME280;49406;51.044;3.766;2023-09-19T05:36:51;101130.23;;;14.34;100.00
63281;BME280;49406;51.044;3.766;2023-09-19T05:39:27;101132.00;;;14.34;100.00
63281;BME280;49406;51.044;3.766;2023-09-19T05:42:02;101128.48;;;14.33;100.00
63281;BME280;49406;51.044;3.766;2023-09-19T05:44:37;101126.73;;;14.29;100.00
63281;BME280;49406;51.044;3.766;2023-09-19T05:47:11;101129.73;;;14.29;100.00
63281;BME280;49406;51.044;3.766;2023-09-19T05:49:46;101123.54;;;14.37;100.00
63281;BME280;49406;51.044;3.766;2023-09-19T05:52:21;101132.86;;;14.44;100.00
63281;BME280;49406;51.044;3.766;2023-09-19T05:54:56;101131.30;;;14.48;100.00
63281;BME280;49406;51.044;3.766;2023-09-19T05:57:30;101129.69;;;14.52;100.00
63281;BME280;49406;51.044;3.766;2023-09-19T06:00:07;101126.33;;;14.55;100.00
63281;BME280;49406;51.044;3.766;2023-09-19T06:02:44;101131.25;;;14.55;100.00
63281;BME280;49406;51.044;3.766;2023-09-19T06:05:19;101134.94;;;14.63;100.00
63281;BME280;49406;51.044;3.766;2023-09-19T06:07:54;101129.80;;;14.69;100.00
63281;BME280;49406;51.044;3.766;2023-09-19T06:10:29;101126.59;;;14.76;100.00
63281;BME280;49406;51.044;3.766;2023-09-19T06:13:05;101127.98;;;14.83;100.00
63281;BME280;49406;51.044;3.766;2023-09-19T06:15:43;101134.11;;;14.88;100.00
63281;BME280;49406;51.044;3.766;2023-09-19T06:18:17;101137.61;;;14.90;100.00
63281;BME280;49406;51.044;3.766;2023-09-19T06:20:53;101134.10;;;14.92;100.00
63281;BME280;49406;51.044;3.766;2023-09-19T06:23:28;101139.30;;;15.04;100.00
63281;BME280;49406;51.044;3.766;2023-09-19T06:26:03;101136.45;;;15.08;100.00
63281;BME280;49406;51.044;3.766;2023-09-19T06:28:40;101141.91;;;15.10;100.00
63281;BME280;49406;51.044;3.766;2023-09-19T06:31:15;101144.37;;;15.15;100.00
63281;BME280;49406;51.044;3.766;2023-09-19T06:33:50;101134.83;;;15.17;100.00
63281;BME280;49406;51.044;3.766;2023-09-19T06:36:25;101142.17;;;15.24;100.00
63281;BME280;49406;51.044;3.766;2023-09-19T06:38:59;101146.05;;;15.25;100.00
63281;BME280;49406;51.044;3.766;2023-09-19T06:41:34;101149.20;;;15.29;100.00
63281;BME280;49406;51.044;3.766;2023-09-19T06:44:09;101157.79;;;15.37;100.00
63281;BME280;49406;51.044;3.766;2023-09-19T06:46:44;101161.44;;;15.42;100.00
63281;BME280;49406;51.044;3.766;2023-09-19T06:49:20;101160.35;;;15.49;100.00
63281;BME280;49406;51.044;3.766;2023-09-19T06:51:56;101161.71;;;15.55;100.00
63281;BME280;49406;51.044;3.766;2023-09-19T06:54:31;101159.05;;;15.60;100.00
63281;BME280;49406;51.044;3.766;2023-09-19T06:57:07;101149.40;;;15.77;100.00
63281;BME280;49406;51.044;3.766;2023-09-19T06:59:43;101145.07;;;15.90;100.00
63281;BME280;49406;51.044;3.766;2023-09-19T07:02:18;101146.87;;;16.05;100.00
63281;BME280;49406;51.044;3.766;2023-09-19T07:04:55;101138.25;;;16.20;100.00
63281;BME280;49406;51.044;3.766;2023-09-19T07:07:29;101143.70;;;16.38;100.00
63281;BME280;49406;51.044;3.766;2023-09-19T07:10:07;101142.30;;;16.54;100.00
63281;BME280;49406;51.044;3.766;2023-09-19T07:12:44;101141.71;;;16.76;100.00
63281;BME280;49406;51.044;3.766;2023-09-19T07:15:18;101141.35;;;16.90;100.00
63281;BME280;49406;51.044;3.766;2023-09-19T07:17:56;101142.63;;;17.01;100.00
63281;BME280;49406;51.044;3.766;2023-09-19T07:20:31;101141.70;;;17.16;100.00
63281;BME280;49406;51.044;3.766;2023-09-19T07:23:06;101144.14;;;17.31;100.00
63281;BME280;49406;51.044;3.766;2023-09-19T07:25:40;101145.89;;;17.43;100.00
63281;BME280;49406;51.044;3.766;2023-09-19T07:28:15;101148.59;;;17.53;100.00
63281;BME280;49406;51.044;3.766;2023-09-19T07:30:50;101149.23;;;17.56;100.00
63281;BME280;49406;51.044;3.766;2023-09-19T07:33:25;101144.35;;;17.64;100.00
63281;BME280;49406;51.044;3.766;2023-09-19T07:36:01;101144.66;;;17.78;100.00
63281;BME280;49406;51.044;3.766;2023-09-19T07:38:36;101147.02;;;17.86;100.00
63281;BME280;49406;51.044;3.766;2023-09-19T07:41:11;101145.28;;;17.93;100.00
63281;BME280;49406;51.044;3.766;2023-09-19T07:43:45;101147.98;;;18.02;100.00
63281;BME280;49406;51.044;3.766;2023-09-19T07:46:20;101147.34;;;18.17;100.00
63281;BME280;49406;51.044;3.766;2023-09-19T07:48:55;101139.11;;;18.50;100.00
63281;BME280;49406;51.044;3.766;2023-09-19T07:51:30;101141.44;;;18.68;100.00
63281;BME280;49406;51.044;3.766;2023-09-19T07:54:06;101140.70;;;18.86;100.00
63281;BME280;49406;51.044;3.766;2023-09-19T07:56:41;101141.16;;;18.98;100.00
63281;BME280;49406;51.044;3.766;2023-09-19T07:59:15;101139.88;;;19.16;100.00
63281;BME280;49406;51.044;3.766;2023-09-19T08:01:50;101144.88;;;19.29;100.00
63281;BME280;49406;51.044;3.766;2023-09-19T08:04:25;101139.06;;;19.28;99.51
63281;BME280;49406;51.044;3.766;2023-09-19T08:07:00;101139.86;;;19.31;99.83
63281;BME280;49406;51.044;3.766;2023-09-19T08:09:37;101140.39;;;19.47;99.75
63281;BME280;49406;51.044;3.766;2023-09-19T08:12:12;101146.64;;;19.61;99.71
63281;BME280;49406;51.044;3.766;2023-09-19T08:14:48;101144.95;;;19.72;98.13
63281;BME280;49406;51.044;3.766;2023-09-19T08:17:23;101147.35;;;19.68;96.36
63281;BME280;49406;51.044;3.766;2023-09-19T08:19:58;101142.77;;;19.60;96.70
63281;BME280;49406;51.044;3.766;2023-09-19T08:22:33;101131.56;;;19.61;96.93
63281;BME280;49406;51.044;3.766;2023-09-19T08:25:08;101124.18;;;19.65;95.74
63281;BME280;49406;51.044;3.766;2023-09-19T08:27:42;101134.62;;;19.74;96.87
63281;BME280;49406;51.044;3.766;2023-09-19T08:30:21;101126.41;;;19.75;95.56
63281;BME280;49406;51.044;3.766;2023-09-19T08:32:59;101130.90;;;19.80;96.29
63281;BME280;49406;51.044;3.766;2023-09-19T08:35:34;101126.86;;;19.93;95.44
63281;BME280;49406;51.044;3.766;2023-09-19T08:38:09;101123.80;;;20.01;94.02
63281;BME280;49406;51.044;3.766;2023-09-19T08:40:44;101128.60;;;20.07;93.97
63281;BME280;49406;51.044;3.766;2023-09-19T08:43:17;101125.85;;;20.10;92.65
63281;BME280;49406;51.044;3.766;2023-09-19T08:45:51;101128.90;;;20.03;91.74
63281;BME280;49406;51.044;3.766;2023-09-19T08:48:27;101138.55;;;20.07;91.67
63281;BME280;49406;51.044;3.766;2023-09-19T08:51:06;101133.84;;;20.18;92.31
63281;BME280;49406;51.044;3.766;2023-09-19T08:53:49;101134.98;;;20.21;90.80
63281;BME280;49406;51.044;3.766;2023-09-19T08:56:26;101133.27;;;20.25;91.03
63281;BME280;49406;51.044;3.766;2023-09-19T08:59:02;101135.09;;;20.24;90.06
63281;BME280;49406;51.044;3.766;2023-09-19T09:01:37;101130.56;;;20.27;89.91
63281;BME280;49406;51.044;3.766;2023-09-19T09:04:14;101137.39;;;20.24;88.93
63281;BME280;49406;51.044;3.766;2023-09-19T09:06:50;101136.16;;;20.18;88.85
63281;BME280;49406;51.044;3.766;2023-09-19T09:09:26;101132.27;;;20.03;88.86
63281;BME280;49406;51.044;3.766;2023-09-19T09:12:03;101126.18;;;20.11;89.57
63281;BME280;49406;51.044;3.766;2023-09-19T09:14:40;101122.83;;;20.04;87.65
63281;BME280;49406;51.044;3.766;2023-09-19T09:17:18;101118.08;;;19.89;88.64
63281;BME280;49406;51.044;3.766;2023-09-19T09:19:55;101118.64;;;19.81;89.31
63281;BME280;49406;51.044;3.766;2023-09-19T09:22:30;101115.58;;;19.76;90.52
63281;BME280;49406;51.044;3.766;2023-09-19T09:25:05;101111.60;;;19.72;90.92
63281;BME280;49406;51.044;3.766;2023-09-19T09:27:41;101103.94;;;19.67;90.61
63281;BME280;49406;51.044;3.766;2023-09-19T09:30:34;101112.86;;;19.64;91.69
63281;BME280;49406;51.044;3.766;2023-09-19T09:33:14;101112.84;;;19.66;92.15
63281;BME280;49406;51.044;3.766;2023-09-19T09:35:53;101106.64;;;19.65;91.18
63281;BME280;49406;51.044;3.766;2023-09-19T09:38:43;101105.39;;;19.79;92.09
63281;BME280;49406;51.044;3.766;2023-09-19T09:41:18;101109.95;;;20.08;91.20
63281;BME280;49406;51.044;3.766;2023-09-19T09:44:14;101110.27;;;20.36;90.23
63281;BME280;49406;51.044;3.766;2023-09-19T09:46:49;101100.50;;;20.61;88.78
63281;BME280;49406;51.044;3.766;2023-09-19T09:49:48;101100.83;;;20.80;87.97
63281;BME280;49406;51.044;3.766;2023-09-19T09:52:49;101104.69;;;20.99;87.55
63281;BME280;49406;51.044;3.766;2023-09-19T09:55:24;101099.23;;;21.20;86.72
63281;BME280;49406;51.044;3.766;2023-09-19T09:58:19;101100.91;;;21.35;85.81
63281;BME280;49406;51.044;3.766;2023-09-19T10:00:59;101096.16;;;21.50;84.35
63281;BME280;49406;51.044;3.766;2023-09-19T10:03:41;101098.63;;;21.67;84.04
63281;BME280;49406;51.044;3.766;2023-09-19T10:06:20;101096.48;;;21.88;82.61
63281;BME280;49406;51.044;3.766;2023-09-19T10:09:05;101093.86;;;22.07;81.98
63281;BME280;49406;51.044;3.766;2023-09-19T10:11:46;101087.62;;;22.28;80.81
63281;BME280;49406;51.044;3.766;2023-09-19T10:14:21;101084.89;;;22.14;79.49
63281;BME280;49406;51.044;3.766;2023-09-19T10:17:00;101082.81;;;22.08;80.56
63281;BME280;49406;51.044;3.766;2023-09-19T10:19:42;101084.47;;;22.16;79.90
63281;BME280;49406;51.044;3.766;2023-09-19T10:22:21;101085.13;;;22.23;79.92
63281;BME280;49406;51.044;3.766;2023-09-19T10:24:56;101091.24;;;22.36;78.56
63281;BME280;49406;51.044;3.766;2023-09-19T10:27:32;101086.11;;;22.49;77.42
63281;BME280;49406;51.044;3.766;2023-09-19T10:30:12;101086.70;;;22.47;76.50
63281;BME280;49406;51.044;3.766;2023-09-19T10:32:55;101084.75;;;22.47;77.12
63281;BME280;49406;51.044;3.766;2023-09-19T10:35:31;101079.70;;;22.54;76.36
63281;BME280;49406;51.044;3.766;2023-09-19T10:38:07;101077.30;;;22.80;76.74
63281;BME280;49406;51.044;3.766;2023-09-19T10:40:44;101080.41;;;23.05;75.11
63281;BME280;49406;51.044;3.766;2023-09-19T10:43:29;101075.42;;;22.96;73.71
63281;BME280;49406;51.044;3.766;2023-09-19T10:46:08;101070.90;;;22.79;74.25
63281;BME280;49406;51.044;3.766;2023-09-19T10:48:43;101063.13;;;22.63;74.13
63281;BME280;49406;51.044;3.766;2023-09-19T10:51:24;101060.29;;;22.59;74.86
63281;BME280;49406;51.044;3.766;2023-09-19T10:54:05;101059.77;;;22.71;75.10
63281;BME280;49406;51.044;3.766;2023-09-19T10:56:46;101065.50;;;22.90;74.67
63281;BME280;49406;51.044;3.766;2023-09-19T10:59:23;101064.79;;;22.86;74.08
63281;BME280;49406;51.044;3.766;2023-09-19T11:01:58;101066.30;;;22.78;74.50
63281;BME280;49406;51.044;3.766;2023-09-19T11:04:35;101067.48;;;22.80;73.97
63281;BME280;49406;51.044;3.766;2023-09-19T11:07:13;101062.38;;;22.54;73.84
63281;BME280;49406;51.044;3.766;2023-09-19T11:09:50;101063.81;;;22.49;75.29
63281;BME280;49406;51.044;3.766;2023-09-19T11:12:50;101059.63;;;22.47;74.18
63281;BME280;49406;51.044;3.766;2023-09-19T11:18:54;101048.35;;;22.72;71.62
63281;BME280;49406;51.044;3.766;2023-09-19T11:21:53;101056.39;;;22.76;72.75
63281;BME280;49406;51.044;3.766;2023-09-19T11:24:32;101053.79;;;22.79;71.72
63281;BME280;49406;51.044;3.766;2023-09-19T11:27:14;101054.46;;;22.52;72.43
63281;BME280;49406;51.044;3.766;2023-09-19T11:33:18;101062.39;;;22.35;73.82
63281;BME280;49406;51.044;3.766;2023-09-19T11:36:06;101052.60;;;22.59;73.57
63281;BME280;49406;51.044;3.766;2023-09-19T11:39:01;101048.25;;;22.93;73.64
63281;BME280;49406;51.044;3.766;2023-09-19T11:41:42;101052.31;;;22.94;71.47
63281;BME280;49406;51.044;3.766;2023-09-19T11:47:10;101045.21;;;22.75;72.73
63281;BME280;49406;51.044;3.766;2023-09-19T11:49:45;101044.08;;;22.81;72.79
63281;BME280;49406;51.044;3.766;2023-09-19T11:52:25;101047.08;;;22.82;72.14
63281;BME280;49406;51.044;3.766;2023-09-19T11:55:01;101046.98;;;22.62;72.19
63281;BME280;49406;51.044;3.766;2023-09-19T11:57:36;101043.74;;;22.48;73.46
63281;BME280;49406;51.044;3.766;2023-09-19T12:00:18;101051.61;;;22.29;73.23
63281;BME280;49406;51.044;3.766;2023-09-19T12:02:56;101046.00;;;22.11;74.61
63281;BME280;49406;51.044;3.766;2023-09-19T12:05:36;101055.02;;;22.09;74.58
63281;BME280;49406;51.044;3.766;2023-09-19T12:08:10;101050.67;;;22.10;75.44
63281;BME280;49406;51.044;3.766;2023-09-19T12:10:51;101046.20;;;22.06;75.30
63281;BME280;49406;51.044;3.766;2023-09-19T12:13:25;101040.81;;;22.02;75.82
63281;BME280;49406;51.044;3.766;2023-09-19T12:16:03;101048.36;;;22.10;76.34
63281;BME280;49406;51.044;3.766;2023-09-19T12:18:48;101045.59;;;22.18;75.81
63281;BME280;49406;51.044;3.766;2023-09-19T12:21:28;101054.20;;;22.26;76.44
63281;BME280;49406;51.044;3.766;2023-09-19T12:24:13;101060.23;;;22.27;76.23
63281;BME280;49406;51.044;3.766;2023-09-19T12:26:49;101062.30;;;22.24;76.19
63281;BME280;49406;51.044;3.766;2023-09-19T12:29:27;101062.59;;;22.15;76.45
63281;BME280;49406;51.044;3.766;2023-09-19T12:32:03;101062.64;;;22.14;76.54
63281;BME280;49406;51.044;3.766;2023-09-19T12:34:39;101055.57;;;22.08;75.84
63281;BME280;49406;51.044;3.766;2023-09-19T12:37:16;101047.05;;;22.02;75.64
63281;BME280;49406;51.044;3.766;2023-09-19T12:40:05;101049.91;;;21.96;76.76
63281;BME280;49406;51.044;3.766;2023-09-19T12:42:49;101055.00;;;22.04;78.24
63281;BME280;49406;51.044;3.766;2023-09-19T12:45:24;101055.15;;;22.10;78.01
63281;BME280;49406;51.044;3.766;2023-09-19T12:48:20;101053.21;;;22.19;78.00
63281;BME280;49406;51.044;3.766;2023-09-19T12:51:03;101051.95;;;22.29;77.86
63281;BME280;49406;51.044;3.766;2023-09-19T12:53:40;101049.37;;;22.36;77.94
63281;BME280;49406;51.044;3.766;2023-09-19T12:56:18;101047.52;;;22.47;78.45
63281;BME280;49406;51.044;3.766;2023-09-19T12:58:56;101049.73;;;22.49;76.57
63281;BME280;49406;51.044;3.766;2023-09-19T13:01:35;101048.45;;;22.37;76.99
63281;BME280;49406;51.044;3.766;2023-09-19T13:04:18;101046.62;;;22.19;76.97
63281;BME280;49406;51.044;3.766;2023-09-19T13:06:53;101051.76;;;22.05;77.46
63281;BME280;49406;51.044;3.766;2023-09-19T13:09:28;101042.19;;;21.98;78.03
63281;BME280;49406;51.044;3.766;2023-09-19T13:12:37;101043.32;;;21.96;77.56
63281;BME280;49406;51.044;3.766;2023-09-19T13:15:15;101039.59;;;21.95;77.04
63281;BME280;49406;51.044;3.766;2023-09-19T13:17:53;101036.40;;;22.01;77.65
63281;BME280;49406;51.044;3.766;2023-09-19T13:20:28;101040.20;;;21.99;78.08
63281;BME280;49406;51.044;3.766;2023-09-19T13:23:05;101041.80;;;21.89;78.13
63281;BME280;49406;51.044;3.766;2023-09-19T13:25:43;101039.02;;;21.82;78.60
63281;BME280;49406;51.044;3.766;2023-09-19T13:28:19;101043.02;;;21.79;79.07
63281;BME280;49406;51.044;3.766;2023-09-19T13:30:53;101034.24;;;21.91;79.06
63281;BME280;49406;51.044;3.766;2023-09-19T13:33:28;101038.59;;;22.04;79.36
63281;BME280;49406;51.044;3.766;2023-09-19T13:36:04;101039.08;;;22.16;79.05
63281;BME280;49406;51.044;3.766;2023-09-19T13:38:38;101035.40;;;22.19;78.93
63281;BME280;49406;51.044;3.766;2023-09-19T13:41:14;101029.63;;;22.21;78.39
63281;BME280;49406;51.044;3.766;2023-09-19T13:43:49;101024.56;;;22.13;78.28
63281;BME280;49406;51.044;3.766;2023-09-19T13:46:24;101024.07;;;22.08;78.56